Time;durP1;ratioP1;P1;durP2;ratioP2;P2;SDS_P1;SDS_P2;PMS_P1;PMS_P2;Temp;Humidity;BMP_temperature;BMP_pressure;BME280_temperature;BME280_humidity;BME280_pressure;Samples;Min_cycle;Max_cycle;Signal;HPM_P1;HPM_P2
2023/03/14 00:00:29;;;;;;;;;;;;;;;16.46;60.91;101250.34;7404412;19;2045;-42
2023/03/14 00:02:57;;;;;;;;;;;;;;;16.45;61.46;101245.94;7404689;19;1634;-42
2023/03/14 00:05:26;;;;;;;;;;;;;;;16.44;61.11;101254.94;7402882;19;1879;-42
2023/03/14 00:07:54;;;;;;;;;;;;;;;16.43;60.88;101235.41;7401615;19;2260;-42
2023/03/14 00:10:23;;;;;;;;;;;;;;;16.45;60.87;101243.28;7402983;19;2054;-42
2023/03/14 00:12:51;;;;;;;;;;;;;;;16.42;61.17;101238.19;7403944;19;1637;-42
2023/03/14 00:15:19;;;;;;;;;;;;;;;16.39;60.94;101235.72;7404634;19;2811;-42
2023/03/14 00:17:50;;;;;;;;;;;;;;;16.37;60.80;101232.28;7403003;19;1876;-44
2023/03/14 00:20:19;;;;;;;;;;;;;;;16.38;61.07;101229.53;7403607;19;2063;-42
2023/03/14 00:22:47;;;;;;;;;;;;;;;16.39;60.69;101223.22;7404344;19;1784;-42
2023/03/14 00:25:15;;;;;;;;;;;;;;;16.37;60.83;101232.28;7402770;19;1842;-42
2023/03/14 00:27:43;;;;;;;;;;;;;;;16.38;61.45;101223.34;7400706;19;1830;-42
2023/03/14 00:30:12;;;;;;;;;;;;;;;16.35;61.44;101215.53;7403575;19;2093;-42
2023/03/14 00:32:41;;;;;;;;;;;;;;;16.37;60.19;101219.78;7404406;19;940;-42
2023/03/14 00:35:12;;;;;;;;;;;;;;;16.33;61.37;101207.63;7401758;19;1905;-42
2023/03/14 00:37:40;;;;;;;;;;;;;;;16.34;60.52;101203.16;7401491;19;2025;-42
2023/03/14 00:40:12;;;;;;;;;;;;;;;16.37;60.97;101197.59;7401712;19;1941;-42
2023/03/14 00:42:40;;;;;;;;;;;;;;;16.36;60.31;101190.56;7401160;19;1740;-42
2023/03/14 00:45:10;;;;;;;;;;;;;;;16.35;60.53;101189.69;7401006;19;2057;-43
2023/03/14 00:47:38;;;;;;;;;;;;;;;16.37;60.41;101192.25;7400987;19;2015;-42
2023/03/14 00:50:07;;;;;;;;;;;;;;;16.36;60.35;101186.06;7403421;19;1125;-42
2023/03/14 00:52:38;;;;;;;;;;;;;;;16.32;60.96;101157.06;7403359;19;978;-42
2023/03/14 00:55:07;;;;;;;;;;;;;;;16.39;60.90;101176.97;7402851;19;2499;-42
2023/03/14 00:57:35;;;;;;;;;;;;;;;16.38;61.17;101172.63;7402389;19;2091;-42
2023/03/14 01:00:05;;;;;;;;;;;;;;;16.38;60.59;101169.97;7398728;19;1039;-42
2023/03/14 01:02:33;;;;;;;;;;;;;;;16.36;61.34;101162.06;7402621;19;1724;-42
2023/03/14 01:05:02;;;;;;;;;;;;;;;16.32;60.34;101159.72;7401874;19;1924;-42
2023/03/14 01:07:30;;;;;;;;;;;;;;;16.31;60.95;101164.19;7399803;19;1997;-42
2023/03/14 01:10:01;;;;;;;;;;;;;;;16.29;61.14;101153.63;7402114;19;2113;-42
2023/03/14 01:12:30;;;;;;;;;;;;;;;16.29;61.07;101147.41;7401851;19;1905;-42
2023/03/14 01:14:58;;;;;;;;;;;;;;;16.27;61.32;101147.56;7402327;19;1665;-42
2023/03/14 01:17:26;;;;;;;;;;;;;;;16.23;60.91;101143.38;7401350;19;1986;-42
2023/03/14 01:19:55;;;;;;;;;;;;;;;16.27;61.39;101141.34;7402997;19;1025;-42
2023/03/14 01:22:23;;;;;;;;;;;;;;;16.23;61.38;101135.34;7401180;19;2091;-42
2023/03/14 01:24:51;;;;;;;;;;;;;;;16.23;60.80;101143.38;7401067;19;2199;-42
2023/03/14 01:27:22;;;;;;;;;;;;;;;16.24;60.77;101145.09;7400343;19;2010;-42
2023/03/14 01:29:50;;;;;;;;;;;;;;;16.21;61.43;101131.94;7400878;19;1058;-42
2023/03/14 01:32:19;;;;;;;;;;;;;;;16.20;61.34;101130.25;7400489;19;2076;-42
2023/03/14 01:34:47;;;;;;;;;;;;;;;16.21;61.79;101144.44;7399397;19;2187;-42
2023/03/14 01:37:15;;;;;;;;;;;;;;;16.19;61.54;101141.88;7399426;19;2026;-42
2023/03/14 01:39:44;;;;;;;;;;;;;;;16.20;61.33;101130.25;7399246;19;2007;-42
2023/03/14 01:42:12;;;;;;;;;;;;;;;16.20;61.18;101146.28;7400410;19;1893;-42
2023/03/14 01:44:55;;;;;;;;;;;;;;;16.20;60.69;101130.25;7401042;19;1954;-42
2023/03/14 01:47:26;;;;;;;;;;;;;;;16.25;60.38;101137.94;7399440;19;2348;-42
2023/03/14 01:49:56;;;;;;;;;;;;;;;16.19;60.98;101131.19;7400525;19;1767;-42
2023/03/14 01:52:27;;;;;;;;;;;;;;;16.22;60.28;101136.34;7400242;19;1812;-42
2023/03/14 01:54:58;;;;;;;;;;;;;;;16.20;60.87;101122.25;7400692;19;2003;-42
2023/03/14 01:57:30;;;;;;;;;;;;;;;16.18;60.88;101121.50;7401289;19;2115;-42
2023/03/14 02:00:00;;;;;;;;;;;;;;;16.21;60.89;101133.78;7401559;19;1710;-42
2023/03/14 02:02:31;;;;;;;;;;;;;;;16.19;61.41;101123.19;7399977;19;1908;-42
2023/03/14 02:05:01;;;;;;;;;;;;;;;16.19;61.13;101130.34;7398786;19;2199;-42
2023/03/14 02:07:33;;;;;;;;;;;;;;;16.17;60.79;101134.94;7398049;19;2036;-42
2023/03/14 02:10:04;;;;;;;;;;;;;;;16.16;60.87;101126.09;7399912;19;1765;-43
2023/03/14 02:12:32;;;;;;;;;;;;;;;16.20;60.73;101132.94;7400330;19;2000;-42
2023/03/14 02:15:00;;;;;;;;;;;;;;;16.13;60.45;101131.63;7400087;19;1676;-42
2023/03/14 02:17:31;;;;;;;;;;;;;;;16.15;60.67;101123.53;7400002;19;1842;-42
2023/03/14 02:20:10;;;;;;;;;;;;;;;16.14;61.77;101136.03;7401242;19;960;-42
2023/03/14 02:22:40;;;;;;;;;;;;;;;16.12;61.32;101126.44;7401206;19;964;-43
2023/03/14 02:25:11;;;;;;;;;;;;;;;16.10;61.17;101137.22;7401078;19;3103;-42
2023/03/14 02:27:42;;;;;;;;;;;;;;;16.08;61.59;101137.31;7398179;19;1849;-42
2023/03/14 02:30:12;;;;;;;;;;;;;;;16.08;60.99;101133.78;7397597;19;2515;-42
2023/03/14 02:32:42;;;;;;;;;;;;;;;16.09;60.74;101135.47;7395723;19;2057;-42
2023/03/14 02:35:13;;;;;;;;;;;;;;;16.06;61.45;101139.22;7398639;19;1971;-42
2023/03/14 02:37:45;;;;;;;;;;;;;;;16.05;61.21;101126.84;7399287;19;1957;-43
2023/03/14 02:40:13;;;;;;;;;;;;;;;16.04;61.33;101138.47;7400522;19;1777;-42
2023/03/14 02:42:44;;;;;;;;;;;;;;;16.05;61.50;101142.84;7406320;19;2097;-42
2023/03/14 02:45:28;;;;;;;;;;;;;;;16.06;61.10;101135.72;7404739;19;1987;-42
2023/03/14 02:47:57;;;;;;;;;;;;;;;16.06;61.27;101135.72;7403618;19;2328;-42
2023/03/14 02:50:27;;;;;;;;;;;;;;;16.28;61.20;101137.72;7405012;19;1979;-42
2023/03/14 02:52:55;;;;;;;;;;;;;;;17.07;59.57;101136.47;7406056;19;2079;-42
2023/03/14 02:55:25;;;;;;;;;;;;;;;17.94;57.32;101140.66;7405959;19;1706;-42
2023/03/14 02:57:56;;;;;;;;;;;;;;;18.80;55.11;101133.84;7405934;19;1797;-42
2023/03/14 03:00:24;;;;;;;;;;;;;;;19.30;54.12;101134.19;7406288;19;1692;-42
2023/03/14 03:02:52;;;;;;;;;;;;;;;19.53;53.76;101136.75;7407081;19;1117;-42
2023/03/14 03:05:21;;;;;;;;;;;;;;;19.55;53.68;101118.69;7404910;19;2150;-42
2023/03/14 03:07:49;;;;;;;;;;;;;;;19.55;53.76;101137.47;7403856;19;2002;-42
2023/03/14 03:10:17;;;;;;;;;;;;;;;19.65;53.51;101130.34;7404129;19;2143;-43
2023/03/14 03:12:46;;;;;;;;;;;;;;;19.60;53.31;101127.22;7406564;19;1999;-42
2023/03/14 03:15:17;;;;;;;;;;;;;;;19.60;53.59;101122.69;7405638;19;1737;-43
2023/03/14 03:17:45;;;;;;;;;;;;;;;19.63;53.34;101113.50;7405330;19;1792;-42
2023/03/14 03:20:14;;;;;;;;;;;;;;;19.71;53.36;101127.16;7405744;19;2089;-43
2023/03/14 03:22:42;;;;;;;;;;;;;;;19.76;53.15;101113.38;7406448;19;1039;-43
2023/03/14 03:25:11;;;;;;;;;;;;;;;19.74;53.05;101116.19;7405880;19;1697;-42
2023/03/14 03:27:40;;;;;;;;;;;;;;;19.82;53.07;101105.63;7404461;19;2071;-42
2023/03/14 03:30:10;;;;;;;;;;;;;;;19.85;53.25;101118.75;7403525;19;1907;-43
2023/03/14 03:32:41;;;;;;;;;;;;;;;19.91;52.85;101112.00;7405997;19;1082;-42
2023/03/14 03:35:10;;;;;;;;;;;;;;;19.95;52.98;101116.13;7403361;19;2370;-43
2023/03/14 03:37:38;;;;;;;;;;;;;;;19.96;52.80;101106.28;7403398;19;1650;-42
2023/03/14 03:40:08;;;;;;;;;;;;;;;19.64;53.60;101115.22;7404451;19;2093;-42
2023/03/14 03:42:36;;;;;;;;;;;;;;;19.41;54.43;101104.59;7403692;19;1801;-42
2023/03/14 03:45:05;;;;;;;;;;;;;;;19.47;54.15;101093.34;7403751;19;1915;-42
2023/03/14 03:47:34;;;;;;;;;;;;;;;19.62;53.60;101087.69;7403703;19;2233;-42
2023/03/14 03:50:05;;;;;;;;;;;;;;;19.73;53.59;101093.00;7404894;19;2112;-42
2023/03/14 03:52:33;;;;;;;;;;;;;;;19.68;53.58;101081.78;7402546;19;2371;-42
2023/03/14 03:55:01;;;;;;;;;;;;;;;19.68;53.49;101085.31;7404659;19;1652;-42
2023/03/14 03:57:30;;;;;;;;;;;;;;;19.70;53.70;101076.28;7404216;19;1626;-42
2023/03/14 03:59:58;;;;;;;;;;;;;;;19.59;53.59;101079.88;7404177;19;2268;-43
2023/03/14 04:02:26;;;;;;;;;;;;;;;18.85;55.75;101075.38;7404119;19;2220;-42
2023/03/14 04:04:55;;;;;;;;;;;;;;;18.26;57.30;101071.19;7402557;19;1967;-42
2023/03/14 04:07:25;;;;;;;;;;;;;;;18.02;57.80;101064.16;7401623;19;2101;-44
2023/03/14 04:09:54;;;;;;;;;;;;;;;18.71;56.18;101067.59;7404096;19;1223;-43
2023/03/14 04:12:22;;;;;;;;;;;;;;;18.98;55.43;101051.06;7400316;19;2280;-42
2023/03/14 04:14:50;;;;;;;;;;;;;;;19.16;54.86;101064.75;7402765;19;2247;-43
2023/03/14 04:17:19;;;;;;;;;;;;;;;19.11;54.90;101065.16;7403542;19;1974;-43
2023/03/14 04:19:49;;;;;;;;;;;;;;;19.06;55.11;101052.16;7402995;19;1944;-42
2023/03/14 04:22:17;;;;;;;;;;;;;;;19.00;55.13;101058.03;7402943;19;1925;-42
2023/03/14 04:24:48;;;;;;;;;;;;;;;19.00;55.01;101049.97;7402208;19;1933;-43
2023/03/14 04:27:17;;;;;;;;;;;;;;;18.98;55.23;101049.25;7401758;19;1945;-43
2023/03/14 04:29:45;;;;;;;;;;;;;;;18.96;55.57;101042.31;7403841;19;1885;-43
2023/03/14 04:32:14;;;;;;;;;;;;;;;18.95;55.62;101032.59;7402670;19;2129;-43
2023/03/14 04:34:42;;;;;;;;;;;;;;;18.95;55.16;101033.44;7402845;19;1680;-43
2023/03/14 04:37:10;;;;;;;;;;;;;;;18.92;55.25;101051.59;7400938;19;1893;-43
2023/03/14 04:39:38;;;;;;;;;;;;;;;18.92;55.47;101028.34;7403629;19;1988;-43
2023/03/14 04:42:09;;;;;;;;;;;;;;;18.94;55.10;101033.53;7402320;19;1798;-42
2023/03/14 04:44:38;;;;;;;;;;;;;;;18.92;55.13;101041.75;7403037;19;1850;-42
2023/03/14 04:47:06;;;;;;;;;;;;;;;18.96;55.08;101024.44;7402896;19;2061;-43
2023/03/14 04:49:34;;;;;;;;;;;;;;;18.93;55.25;101023.81;7402597;19;2113;-43
2023/03/14 04:52:03;;;;;;;;;;;;;;;18.94;55.40;101004.94;7402939;19;1004;-42
2023/03/14 04:54:31;;;;;;;;;;;;;;;18.93;55.34;101027.34;7401652;19;2041;-43
2023/03/14 04:56:59;;;;;;;;;;;;;;;18.97;55.11;101042.19;7401764;19;2061;-43
2023/03/14 04:59:30;;;;;;;;;;;;;;;18.99;55.36;101034.03;7402870;19;1421;-42
2023/03/14 05:01:59;;;;;;;;;;;;;;;18.98;55.14;101033.19;7402020;19;2191;-43
2023/03/14 05:04:27;;;;;;;;;;;;;;;19.01;54.82;101032.91;7399579;19;1648;-42
2023/03/14 05:06:55;;;;;;;;;;;;;;;19.04;54.98;101019.25;7401351;19;2467;-42
2023/03/14 05:09:23;;;;;;;;;;;;;;;19.04;55.01;101043.38;7362526;19;14977;-45
2023/03/14 05:11:52;;;;;;;;;;;;;;;19.09;54.73;101061.75;7401208;19;1438;-42
2023/03/14 05:14:20;;;;;;;;;;;;;;;19.23;54.82;101052.53;7401447;19;1986;-43
2023/03/14 05:16:51;;;;;;;;;;;;;;;19.29;54.07;101052.03;7400965;19;2209;-43
2023/03/14 05:19:19;;;;;;;;;;;;;;;19.23;54.40;101052.53;7401446;19;2111;-43
2023/03/14 05:21:47;;;;;;;;;;;;;;;19.22;54.24;101051.72;7399774;19;1819;-43
2023/03/14 05:24:16;;;;;;;;;;;;;;;19.24;54.03;101054.25;7401934;19;2109;-43
2023/03/14 05:26:44;;;;;;;;;;;;;;;19.31;53.84;101052.75;7398652;19;1918;-43
2023/03/14 05:29:12;;;;;;;;;;;;;;;19.34;53.53;101044.44;7399582;19;1853;-43
2023/03/14 05:31:40;;;;;;;;;;;;;;;19.80;52.47;101045.03;7399932;19;2113;-43
2023/03/14 05:34:11;;;;;;;;;;;;;;;20.46;50.89;101047.22;7400536;19;1759;-43
2023/03/14 05:36:40;;;;;;;;;;;;;;;20.16;51.26;101046.28;7400541;19;1751;-43
2023/03/14 05:39:09;;;;;;;;;;;;;;;20.19;51.24;101045.16;7400772;19;2326;-43
2023/03/14 05:41:37;;;;;;;;;;;;;;;20.52;50.77;101038.59;7400707;19;1719;-43
2023/03/14 05:44:05;;;;;;;;;;;;;;;19.91;52.36;101052.13;7400450;19;1884;-42
2023/03/14 05:46:33;;;;;;;;;;;;;;;19.53;53.36;101042.88;7398972;19;2032;-43
2023/03/14 05:49:02;;;;;;;;;;;;;;;19.32;53.68;101019.59;7396592;19;1878;-43
2023/03/14 05:51:33;;;;;;;;;;;;;;;19.67;53.77;101029.94;7395633;19;1761;-43
2023/03/14 05:54:01;;;;;;;;;;;;;;;19.68;53.95;101041.53;7393200;19;1841;-42
2023/03/14 05:56:29;;;;;;;;;;;;;;;19.57;53.94;101034.41;7397831;19;1938;-42
2023/03/14 05:58:58;;;;;;;;;;;;;;;19.55;54.33;101031.00;7394944;19;1827;-42
2023/03/14 06:01:26;;;;;;;;;;;;;;;19.68;54.12;101037.03;7396243;19;2610;-42
2023/03/14 06:03:54;;;;;;;;;;;;;;;19.70;53.69;101028.84;7395562;19;2036;-42
2023/03/14 06:06:23;;;;;;;;;;;;;;;19.60;53.13;101022.59;7398394;19;1825;-42
2023/03/14 06:08:54;;;;;;;;;;;;;;;19.55;52.66;101014.91;7399057;19;2149;-42
2023/03/14 06:11:22;;;;;;;;;;;;;;;19.57;52.66;101023.69;7396090;19;1883;-42
2023/03/14 06:13:50;;;;;;;;;;;;;;;19.58;52.52;101013.81;7392927;19;1900;-42
2023/03/14 06:16:18;;;;;;;;;;;;;;;19.43;52.41;101019.50;7398527;19;1856;-42
2023/03/14 06:18:48;;;;;;;;;;;;;;;19.04;52.70;101043.38;7401975;19;1871;-42
2023/03/14 06:21:17;;;;;;;;;;;;;;;18.70;54.15;101029.22;7401757;19;1768;-42
2023/03/14 06:23:45;;;;;;;;;;;;;;;18.59;54.82;101018.56;7401249;19;1810;-42
2023/03/14 06:26:16;;;;;;;;;;;;;;;18.53;55.16;101017.25;7399393;19;1876;-42
2023/03/14 06:28:44;;;;;;;;;;;;;;;18.51;55.13;101021.88;7282830;19;2154;-42
2023/03/14 06:31:13;;;;;;;;;;;;;;;18.47;52.52;101017.75;7399415;19;1870;-42
2023/03/14 06:33:41;;;;;;;;;;;;;;;18.47;52.89;101023.09;7405650;19;1860;-42
2023/03/14 06:36:10;;;;;;;;;;;;;;;18.47;53.88;101012.38;7400553;19;2675;-46
2023/03/14 06:38:38;;;;;;;;;;;;;;;18.46;54.03;101030.28;7404980;19;1795;-45
2023/03/14 06:41:07;;;;;;;;;;;;;;;18.44;54.65;101026.00;7405162;19;1785;-45
2023/03/14 06:43:38;;;;;;;;;;;;;;;19.30;52.59;101018.88;7405654;19;2060;-45
2023/03/14 06:46:06;;;;;;;;;;;;;;;19.55;51.80;101006.88;7406247;19;1811;-45
2023/03/14 06:48:35;;;;;;;;;;;;;;;19.18;52.39;101015.41;7402400;19;1853;-46
2023/03/14 06:51:03;;;;;;;;;;;;;;;18.92;53.73;101006.91;7404613;19;1980;-45
2023/03/14 06:53:31;;;;;;;;;;;;;;;18.78;54.16;101012.50;7403732;19;2093;-45
2023/03/14 06:56:00;;;;;;;;;;;;;;;18.68;54.26;101009.75;7403797;19;1800;-45
2023/03/14 06:58:28;;;;;;;;;;;;;;;18.55;55.14;101015.28;7403298;19;1501;-45
2023/03/14 07:00:59;;;;;;;;;;;;;;;18.58;55.18;101019.53;7404339;19;1553;-45
2023/03/14 07:03:27;;;;;;;;;;;;;;;19.35;53.87;101008.59;7395618;19;1697;-50
2023/03/14 07:05:56;;;;;;;;;;;;;;;19.34;53.78;101001.53;7403638;19;1839;-47
2023/03/14 07:08:24;;;;;;;;;;;;;;;19.03;54.18;100993.44;7337159;19;12800;-47
2023/03/14 07:10:53;;;;;;;;;;;;;;;18.83;55.13;100995.13;7403387;19;1737;-50
2023/03/14 07:13:22;;;;;;;;;;;;;;;18.69;55.28;100985.50;7402432;19;1786;-49
2023/03/14 07:15:50;;;;;;;;;;;;;;;18.67;55.74;100983.94;7403356;19;1820;-49
2023/03/14 07:18:21;;;;;;;;;;;;;;;18.64;55.55;100977.03;7402531;19;1669;-49
2023/03/14 07:20:49;;;;;;;;;;;;;;;18.62;55.69;100983.47;7405186;19;1896;-49
2023/03/14 07:23:17;;;;;;;;;;;;;;;18.60;55.63;100975.59;7403241;19;1698;-49
2023/03/14 07:25:46;;;;;;;;;;;;;;;18.61;55.71;100966.56;7403018;19;1750;-49
2023/03/14 07:28:14;;;;;;;;;;;;;;;18.62;55.96;100968.28;7400721;19;1850;-49
2023/03/14 07:30:42;;;;;;;;;;;;;;;18.59;55.92;100976.56;7404218;19;1475;-49
2023/03/14 07:33:11;;;;;;;;;;;;;;;18.59;56.43;100984.59;7403643;19;2255;-49
2023/03/14 07:35:42;;;;;;;;;;;;;;;18.56;56.53;100974.16;7402696;19;2107;-49
2023/03/14 07:38:10;;;;;;;;;;;;;;;18.58;56.38;100977.53;7403698;19;1860;-49
2023/03/14 07:40:39;;;;;;;;;;;;;;;18.57;56.41;100969.63;7403044;19;1846;-49
2023/03/14 07:43:07;;;;;;;;;;;;;;;18.54;56.71;100969.88;7403981;19;1747;-49
2023/03/14 07:45:35;;;;;;;;;;;;;;;18.56;56.54;100959.88;7402127;19;2098;-49
2023/03/14 07:48:04;;;;;;;;;;;;;;;18.56;56.83;100965.25;7402131;19;1755;-49
2023/03/14 07:50:32;;;;;;;;;;;;;;;18.54;56.71;100960.00;7399615;19;1857;-49
2023/03/14 07:53:03;;;;;;;;;;;;;;;18.52;56.82;100961.13;7403210;19;2174;-49
2023/03/14 07:55:31;;;;;;;;;;;;;;;18.48;56.88;100965.88;7403073;19;1736;-49
2023/03/14 07:58:00;;;;;;;;;;;;;;;18.49;56.90;100962.22;7402814;19;2000;-49
2023/03/14 08:00:28;;;;;;;;;;;;;;;18.45;57.25;100948.25;7401797;19;1913;-49
2023/03/14 08:02:56;;;;;;;;;;;;;;;18.42;57.05;100953.00;7401550;19;1546;-47
2023/03/14 08:05:25;;;;;;;;;;;;;;;18.39;57.31;100947.91;7400639;19;2006;-47
2023/03/14 08:07:53;;;;;;;;;;;;;;;18.37;57.13;100960.56;7398149;19;2232;-47
2023/03/14 08:10:24;;;;;;;;;;;;;;;18.33;57.10;100945.75;7398450;19;1964;-47
2023/03/14 08:12:52;;;;;;;;;;;;;;;18.36;57.30;100958.84;7379264;19;12669;-47
2023/03/14 08:15:20;;;;;;;;;;;;;;;18.29;57.61;100940.63;7401267;19;2867;-47
2023/03/14 08:17:50;;;;;;;;;;;;;;;18.28;57.56;100938.06;7402375;19;2054;-47
2023/03/14 08:20:19;;;;;;;;;;;;;;;18.27;57.73;100949.78;7399944;19;1759;-46
2023/03/14 08:22:47;;;;;;;;;;;;;;;18.19;57.80;100945.03;7400186;19;1807;-47
2023/03/14 08:25:16;;;;;;;;;;;;;;;18.21;57.76;100926.19;7401361;19;2033;-47
2023/03/14 08:27:47;;;;;;;;;;;;;;;18.22;57.83;100930.53;7400610;19;2095;-47
2023/03/14 08:30:19;;;;;;;;;;;;;;;18.21;57.89;100940.41;7399087;19;2063;-47
2023/03/14 08:32:47;;;;;;;;;;;;;;;18.27;57.70;100937.22;7401343;19;2029;-47
2023/03/14 08:35:16;;;;;;;;;;;;;;;18.25;57.79;100931.16;7401942;19;1039;-47
2023/03/14 08:37:44;;;;;;;;;;;;;;;18.26;58.01;100938.22;7401369;19;2002;-47
2023/03/14 08:40:13;;;;;;;;;;;;;;;18.20;57.77;100933.34;7401200;19;2060;-47
2023/03/14 08:42:42;;;;;;;;;;;;;;;18.21;57.93;100935.06;7399329;19;1959;-47
2023/03/14 08:45:14;;;;;;;;;;;;;;;18.22;58.03;100931.41;7399443;19;1911;-47
2023/03/14 08:47:42;;;;;;;;;;;;;;;18.18;57.85;100913.88;7401465;19;1938;-47
2023/03/14 08:50:11;;;;;;;;;;;;;;;18.23;58.04;100913.53;7399006;19;2033;-47
2023/03/14 08:52:40;;;;;;;;;;;;;;;18.21;58.10;100905.63;7399689;19;2006;-47
2023/03/14 08:55:09;;;;;;;;;;;;;;;18.20;58.09;100906.56;7401009;19;2006;-47
2023/03/14 08:57:37;;;;;;;;;;;;;;;18.22;57.97;100882.38;7400934;19;1878;-47
2023/03/14 09:00:10;;;;;;;;;;;;;;;18.24;57.86;100883.97;7402432;19;1786;-47
2023/03/14 09:02:41;;;;;;;;;;;;;;;18.20;58.33;100874.47;7401503;19;1808;-46
2023/03/14 09:05:10;;;;;;;;;;;;;;;18.17;58.11;100872.06;7399740;19;1988;-47
2023/03/14 09:07:38;;;;;;;;;;;;;;;18.20;58.22;100878.97;7399405;19;2211;-46
2023/03/14 09:10:07;;;;;;;;;;;;;;;18.17;58.65;100869.38;7399918;19;2027;-47
2023/03/14 09:12:36;;;;;;;;;;;;;;;18.13;58.45;100867.94;7400577;19;1919;-47
2023/03/14 09:15:04;;;;;;;;;;;;;;;18.16;58.69;100869.50;7400791;19;2061;-47
2023/03/14 09:17:33;;;;;;;;;;;;;;;18.14;58.34;100861.59;7400369;19;2099;-47
2023/03/14 09:20:05;;;;;;;;;;;;;;;18.04;58.50;100853.47;7400620;19;1669;-47
2023/03/14 09:22:35;;;;;;;;;;;;;;;18.11;58.19;100850.31;7398183;19;1918;-47
2023/03/14 09:25:03;;;;;;;;;;;;;;;18.13;58.36;100857.22;7399604;19;1887;-47
2023/03/14 09:27:32;;;;;;;;;;;;;;;18.12;58.38;100846.66;7399350;19;1899;-47
2023/03/14 09:30:00;;;;;;;;;;;;;;;18.11;58.44;100835.09;7397045;19;1864;-47
2023/03/14 09:32:28;;;;;;;;;;;;;;;18.14;58.41;100834.81;7400270;19;1752;-47
2023/03/14 09:34:56;;;;;;;;;;;;;;;18.16;58.17;100837.38;7398646;19;2167;-47
2023/03/14 09:37:27;;;;;;;;;;;;;;;18.12;58.70;100820.72;7398278;19;1893;-47
2023/03/14 09:39:56;;;;;;;;;;;;;;;18.04;58.68;100821.34;7398487;19;2058;-47
2023/03/14 09:42:25;;;;;;;;;;;;;;;18.05;58.70;100812.38;7399654;19;1825;-47
2023/03/14 09:44:57;;;;;;;;;;;;;;;18.10;59.95;100822.69;7396842;19;1776;-47
2023/03/14 09:47:26;;;;;;;;;;;;;;;18.07;63.62;100809.56;7398272;19;1835;-47
2023/03/14 09:49:54;;;;;;;;;;;;;;;18.05;61.86;100800.81;7397108;19;1857;-47
2023/03/14 09:52:24;;;;;;;;;;;;;;;18.07;61.02;100797.03;7398559;19;1705;-47
2023/03/14 09:54:57;;;;;;;;;;;;;;;18.06;63.28;100797.16;7399941;19;1971;-47
2023/03/14 09:57:26;;;;;;;;;;;;;;;18.05;64.47;100777.59;7399556;19;1687;-46
2023/03/14 09:59:56;;;;;;;;;;;;;;;18.08;64.29;100781.81;7399239;19;2035;-47
2023/03/14 10:02:24;;;;;;;;;;;;;;;18.14;64.56;100759.06;7398593;19;2164;-47
2023/03/14 10:04:54;;;;;;;;;;;;;;;18.18;64.49;100773.88;7398099;19;1847;-47
2023/03/14 10:07:28;;;;;;;;;;;;;;;18.27;64.92;100768.59;7397084;19;1889;-47
2023/03/14 10:09:59;;;;;;;;;;;;;;;18.34;63.07;100766.22;7394298;19;2659;-50
2023/03/14 10:12:33;;;;;;;;;;;;;;;18.44;64.60;100752.91;7398885;19;1882;-50
2023/03/14 10:15:04;;;;;;;;;;;;;;;18.42;64.65;100752.19;7398677;19;1978;-51
2023/03/14 10:17:40;;;;;;;;;;;;;;;18.46;65.50;100724.16;7394790;19;1954;-48
2023/03/14 10:20:10;;;;;;;;;;;;;;;18.44;64.98;100732.34;7399932;19;2829;-48
2023/03/14 10:22:38;;;;;;;;;;;;;;;18.43;65.05;100735.16;7399511;19;1669;-50
2023/03/14 10:25:27;;;;;;;;;;;;;;;18.51;64.88;100734.50;7398307;19;1817;-50
2023/03/14 10:27:56;;;;;;;;;;;;;;;18.51;65.61;100732.66;7398975;19;1726;-50
2023/03/14 10:30:32;;;;;;;;;;;;;;;18.51;65.28;100729.97;7397166;19;2039;-48
2023/03/14 10:33:09;;;;;;;;;;;;;;;18.57;66.67;100716.06;7398679;19;1675;-50
2023/03/14 10:35:38;;;;;;;;;;;;;;;18.55;66.69;100715.34;7399049;19;2535;-50
2023/03/14 10:38:07;;;;;;;;;;;;;;;18.44;66.21;100691.31;7397715;19;2049;-50
2023/03/14 10:40:41;;;;;;;;;;;;;;;18.37;66.21;100701.72;7398190;19;1809;-51
2023/03/14 10:43:16;;;;;;;;;;;;;;;18.43;65.92;100695.00;7397980;19;1756;-50
2023/03/14 10:45:45;;;;;;;;;;;;;;;18.45;65.78;100679.63;7396721;19;2233;-50
2023/03/14 10:48:23;;;;;;;;;;;;;;;18.46;65.68;100689.34;7398509;19;1626;-51
2023/03/14 10:50:56;;;;;;;;;;;;;;;18.32;64.98;100671.81;7396583;19;1921;-50
2023/03/14 10:53:24;;;;;;;;;;;;;;;18.31;64.91;100659.41;7398703;19;1616;-50
2023/03/14 10:55:55;;;;;;;;;;;;;;;18.42;64.50;100655.78;7395795;19;2124;-50
2023/03/14 10:58:27;;;;;;;;;;;;;;;18.42;64.47;100654.00;7396400;19;1773;-50
2023/03/14 11:01:11;;;;;;;;;;;;;;;18.36;65.31;100641.09;7396857;19;2103;-50
2023/03/14 11:03:43;;;;;;;;;;;;;;;18.36;65.24;100653.66;7404805;19;1914;-50
2023/03/14 11:06:17;;;;;;;;;;;;;;;18.32;65.30;100625.47;7402639;19;1761;-50
2023/03/14 11:08:49;;;;;;;;;;;;;;;18.27;65.22;100617.84;7402532;19;1764;-49
2023/03/14 11:11:21;;;;;;;;;;;;;;;18.28;64.97;100628.44;7402145;19;1924;-50
2023/03/14 11:13:57;;;;;;;;;;;;;;;18.26;64.63;100611.66;7403310;19;2110;-49
2023/03/14 11:16:29;;;;;;;;;;;;;;;18.27;64.41;100593.75;7406076;19;1860;-49
2023/03/14 11:19:06;;;;;;;;;;;;;;;18.25;64.70;100593.88;7404756;19;2069;-50
2023/03/14 11:21:38;;;;;;;;;;;;;;;18.26;63.24;100592.91;7404452;19;3031;-50
2023/03/14 11:24:16;;;;;;;;;;;;;;;18.26;61.14;100590.25;7403742;19;1849;-50
2023/03/14 11:26:51;;;;;;;;;;;;;;;18.23;60.91;100570.91;7402781;19;1744;-50
2023/03/14 11:29:23;;;;;;;;;;;;;;;18.24;63.24;100551.19;7405024;19;1753;-50
2023/03/14 11:31:51;;;;;;;;;;;;;;;18.20;62.72;100545.25;7401319;19;1932;-50
2023/03/14 11:34:25;;;;;;;;;;;;;;;18.19;63.70;100551.59;7403500;19;1849;-50
2023/03/14 11:36:55;;;;;;;;;;;;;;;18.13;59.14;100537.94;7403054;19;1681;-50
2023/03/14 11:39:24;;;;;;;;;;;;;;;18.20;62.88;100529.19;7402575;19;1699;-50
2023/03/14 11:41:56;;;;;;;;;;;;;;;18.16;63.10;100525.09;7404285;19;1722;-49
2023/03/14 11:44:27;;;;;;;;;;;;;;;18.12;63.59;100529.03;7402751;19;2090;-50
2023/03/14 11:46:59;;;;;;;;;;;;;;;18.09;62.97;100518.59;7402982;19;1961;-50
2023/03/14 11:49:33;;;;;;;;;;;;;;;18.05;63.48;100498.47;7402621;19;1763;-50
2023/03/14 11:52:05;;;;;;;;;;;;;;;18.01;63.19;100487.19;7400735;19;2156;-50
2023/03/14 11:54:37;;;;;;;;;;;;;;;18.01;63.19;100478.31;7402980;19;1976;-50
2023/03/14 11:57:13;;;;;;;;;;;;;;;18.03;62.07;100479.03;7402758;19;1706;-50
2023/03/14 11:59:48;;;;;;;;;;;;;;;17.98;62.09;100481.25;7403295;19;2157;-50
2023/03/14 12:02:23;;;;;;;;;;;;;;;18.00;56.86;100473.91;7402347;19;1564;-50
2023/03/14 12:04:57;;;;;;;;;;;;;;;17.97;56.27;100455.50;7403179;19;1762;-50
2023/03/14 12:07:29;;;;;;;;;;;;;;;17.98;57.53;100455.31;7400639;19;1801;-49
2023/03/14 12:09:58;;;;;;;;;;;;;;;18.09;53.98;100446.34;7400217;19;2041;-50
2023/03/14 12:12:30;;;;;;;;;;;;;;;18.03;53.56;100430.84;7398809;19;1843;-50
2023/03/14 12:15:00;;;;;;;;;;;;;;;17.99;54.07;100434.78;7401481;19;2104;-50
2023/03/14 12:17:35;;;;;;;;;;;;;;;17.91;57.45;100437.31;7403057;19;1569;-50
2023/03/14 12:20:07;;;;;;;;;;;;;;;17.84;57.41;100434.31;7401688;19;1782;-50
2023/03/14 12:22:38;;;;;;;;;;;;;;;17.85;56.93;100419.97;7402926;19;1750;-50
2023/03/14 12:25:09;;;;;;;;;;;;;;;17.84;56.95;100427.13;7400729;19;1544;-49
2023/03/14 12:27:45;;;;;;;;;;;;;;;17.84;56.52;100424.44;7401616;19;1582;-50
2023/03/14 12:30:20;;;;;;;;;;;;;;;17.81;55.90;100419.34;7400488;19;1890;-49
2023/03/14 12:33:03;;;;;;;;;;;;;;;17.81;54.95;100405.16;7401692;19;1677;-50
2023/03/14 12:35:38;;;;;;;;;;;;;;;17.82;54.18;100413.00;7401710;19;1922;-50
2023/03/14 12:38:08;;;;;;;;;;;;;;;17.84;54.35;100411.06;7400615;19;1872;-50
2023/03/14 12:40:41;;;;;;;;;;;;;;;17.86;52.96;100398.41;7401446;19;2116;-49
2023/03/14 12:43:26;;;;;;;;;;;;;;;17.87;52.91;100392.09;7401064;19;1763;-50
2023/03/14 12:46:11;;;;;;;;;;;;;;;17.84;51.66;100405.72;7400777;19;1991;-50
2023/03/14 12:48:40;;;;;;;;;;;;;;;17.95;51.93;100391.41;7401622;19;1842;-50
2023/03/14 12:51:15;;;;;;;;;;;;;;;18.00;52.10;100380.28;7399105;19;1895;-50
2023/03/14 12:53:58;;;;;;;;;;;;;;;18.00;51.81;100386.47;7400260;19;1961;-50
2023/03/14 12:56:31;;;;;;;;;;;;;;;18.03;52.15;100372.00;7399334;19;1871;-49
2023/03/14 12:59:14;;;;;;;;;;;;;;;18.60;51.36;100367.63;7397862;19;2064;-47
2023/03/14 13:01:50;;;;;;;;;;;;;;;19.43;48.17;100362.47;7399002;19;1846;-47